createdAt,value
2022-12-13T00:00:20.734Z,9.23
2022-12-13T00:02:52.291Z,8.48
2022-12-13T00:05:23.143Z,7.20
2022-12-13T00:08:01.514Z,9.88
2022-12-13T00:10:32.583Z,8.35
2022-12-13T00:13:07.168Z,8.35
2022-12-13T00:15:39.909Z,7.93
2022-12-13T00:18:11.969Z,9.95
2022-12-13T00:20:44.189Z,8.23
2022-12-13T00:23:15.496Z,8.35
2022-12-13T00:25:47.218Z,7.53
2022-12-13T00:28:21.551Z,9.40
2022-12-13T00:31:34.265Z,9.20
2022-12-13T00:33:59.492Z,10.10
2022-12-13T00:36:41.214Z,6.40
2022-12-13T00:39:15.849Z,7.78
2022-12-13T00:41:46.736Z,6.68
2022-12-13T00:44:20.301Z,7.45
2022-12-13T00:46:53.752Z,7.72
2022-12-13T00:49:25.028Z,8.40
2022-12-13T00:51:59.121Z,9.30
2022-12-13T00:54:33.291Z,9.93
2022-12-13T00:57:06.432Z,7.35
2022-12-13T00:59:37.754Z,8.15
2022-12-13T01:02:18.103Z,8.95
2022-12-13T01:05:01.963Z,8.48
2022-12-13T01:07:34.867Z,6.50
2022-12-13T01:10:09.723Z,6.30
2022-12-13T01:12:41.332Z,7.35
2022-12-13T01:15:13.190Z,7.35
2022-12-13T01:17:48.229Z,6.97
2022-12-13T01:20:18.641Z,7.45
2022-12-13T01:22:49.405Z,7.10
2022-12-13T01:25:20.010Z,8.25
2022-12-13T01:27:53.783Z,8.32
2022-12-13T01:30:26.312Z,7.60
2022-12-13T01:32:59.199Z,8.57
2022-12-13T01:35:32.177Z,7.20
2022-12-13T01:38:04.152Z,8.65
2022-12-13T01:40:49.114Z,8.20
2022-12-13T01:43:20.982Z,6.18
2022-12-13T01:45:52.613Z,7.85
2022-12-13T01:48:33.017Z,9.07
2022-12-13T01:51:09.862Z,8.30
2022-12-13T01:53:45.828Z,7.55
2022-12-13T01:56:24.868Z,9.18
2022-12-13T01:58:59.519Z,9.45
2022-12-13T02:01:32.345Z,8.30
2022-12-13T02:04:05.215Z,8.00
2022-12-13T02:06:40.380Z,9.38
2022-12-13T02:09:14.211Z,8.57
2022-12-13T02:11:45.729Z,8.75
2022-12-13T02:14:17.061Z,9.43
2022-12-13T02:17:14.776Z,8.18
2022-12-13T02:20:25.520Z,9.40
2022-12-13T02:23:31.182Z,7.60
2022-12-13T02:26:38.896Z,7.88
2022-12-13T02:29:43.186Z,5.50
2022-12-13T02:32:26.851Z,9.95
2022-12-13T02:35:06.365Z,7.03
2022-12-13T02:37:49.081Z,8.80
2022-12-13T02:40:27.213Z,6.88
2022-12-13T02:43:11.137Z,7.53
2022-12-13T02:45:47.518Z,8.18
2022-12-13T02:48:27.013Z,8.25
2022-12-13T02:51:48.121Z,9.35
2022-12-13T02:54:19.108Z,10.15
2022-12-13T02:56:58.458Z,9.30
2022-12-13T02:59:33.769Z,10.63
2022-12-13T03:02:21.580Z,10.55
2022-12-13T03:05:32.922Z,9.38
2022-12-13T03:08:19.690Z,8.95
2022-12-13T03:10:58.810Z,8.15
2022-12-13T03:13:37.964Z,12.70
2022-12-13T03:16:22.628Z,10.95
2022-12-13T03:18:56.771Z,10.65
2022-12-13T03:21:29.395Z,9.23
2022-12-13T03:23:59.160Z,9.85
2022-12-13T04:03:02.487Z,8.32
2022-12-13T06:16:25.483Z,8.30
2022-12-13T08:42:16.680Z,13.52
2022-12-13T08:44:57.440Z,13.57
2022-12-13T08:47:28.572Z,14.15
2022-12-13T08:50:12.418Z,16.20
2022-12-13T08:52:45.208Z,14.18
2022-12-13T08:55:16.003Z,14.05
2022-12-13T08:57:47.622Z,14.18
2022-12-13T09:00:36.887Z,11.65
2022-12-13T09:06:20.228Z,12.50
2022-12-13T09:08:51.759Z,13.05
2022-12-13T09:11:33.109Z,12.38
2022-12-13T09:14:07.130Z,12.50
2022-12-13T09:16:50.593Z,13.85
2022-12-13T09:19:25.438Z,13.82
2022-12-13T09:22:02.508Z,13.95
2022-12-13T09:24:35.951Z,12.52
2022-12-13T09:27:10.380Z,15.32
2022-12-13T09:30:53.986Z,13.35
2022-12-13T09:34:30.482Z,12.00
2022-12-13T09:40:37.879Z,14.07
2022-12-13T09:43:22.062Z,15.27
2022-12-13T09:46:23.207Z,12.20
2022-12-13T09:49:02.208Z,11.43
2022-12-13T09:58:30.627Z,13.60
2022-12-13T10:01:09.121Z,12.35
2022-12-13T10:03:38.897Z,13.90
2022-12-13T10:06:23.751Z,12.98
2022-12-13T10:08:57.510Z,14.35
2022-12-13T10:11:31.584Z,10.98
2022-12-13T10:14:06.054Z,12.98
2022-12-13T10:16:45.560Z,13.45
2022-12-13T10:19:28.132Z,12.02
2022-12-13T10:22:01.206Z,10.50
2022-12-13T10:24:48.480Z,12.80
2022-12-13T10:27:30.127Z,12.95
2022-12-13T10:30:07.398Z,11.80
2022-12-13T10:32:55.303Z,11.13
2022-12-13T10:36:29.868Z,10.00
2022-12-13T10:38:59.387Z,12.65
2022-12-13T10:41:35.743Z,13.95
2022-12-13T10:44:25.575Z,11.30
2022-12-13T10:47:17.095Z,14.65
2022-12-13T10:49:59.340Z,10.25
2022-12-13T10:52:32.379Z,11.00
2022-12-13T10:55:13.575Z,12.18
2022-12-13T10:57:54.411Z,12.85
2022-12-13T11:00:38.884Z,10.77
2022-12-13T11:03:09.391Z,11.25
2022-12-13T11:05:41.028Z,11.48
2022-12-13T11:08:23.379Z,11.23
2022-12-13T11:11:00.744Z,11.10
2022-12-13T11:13:38.121Z,10.60
2022-12-13T11:16:23.621Z,12.27
2022-12-13T11:18:55.933Z,11.85
2022-12-13T11:21:32.750Z,11.50
2022-12-13T11:31:24.866Z,12.48
2022-12-13T11:34:04.331Z,10.35
2022-12-13T11:36:45.175Z,10.23
2022-12-13T11:39:23.428Z,8.77
2022-12-13T11:41:58.065Z,10.10
2022-12-13T11:44:47.837Z,11.23
2022-12-13T11:47:33.048Z,12.73
2022-12-13T11:50:20.487Z,11.50
2022-12-13T11:53:24.492Z,10.02
2022-12-13T11:56:00.915Z,10.18
2022-12-13T11:59:01.932Z,12.50
2022-12-13T12:01:39.708Z,9.10
2022-12-13T12:04:21.079Z,9.68
2022-12-13T12:07:17.892Z,9.77
2022-12-13T12:09:55.466Z,9.32
2022-12-13T12:12:32.924Z,9.52
2022-12-13T12:15:15.685Z,8.57
2022-12-13T12:17:46.779Z,9.02
2022-12-13T12:20:23.664Z,8.50
2022-12-13T12:23:05.339Z,10.80
2022-12-13T12:25:46.320Z,10.63
2022-12-13T12:28:28.016Z,10.88
2022-12-13T12:31:06.837Z,9.55
2022-12-13T12:33:48.862Z,9.25
2022-12-13T12:36:39.940Z,11.45
2022-12-13T12:39:35.912Z,10.88
2022-12-13T12:42:56.391Z,10.38
2022-12-13T12:45:57.368Z,9.02
2022-12-13T12:49:03.016Z,11.07
2022-12-13T12:51:41.057Z,8.77
2022-12-13T12:54:32.150Z,11.32
2022-12-13T12:57:11.206Z,10.60
2022-12-13T13:00:01.206Z,14.43
2022-12-13T13:02:38.332Z,11.30
2022-12-13T13:09:55.083Z,8.85
2022-12-13T13:38:48.739Z,11.25
2022-12-13T13:41:50.497Z,8.23
2022-12-13T13:44:49.649Z,8.85
2022-12-13T13:49:03.642Z,9.63
2022-12-13T13:56:11.154Z,8.90
2022-12-13T13:59:45.243Z,7.47
2022-12-13T14:02:46.736Z,11.40
2022-12-13T14:05:51.822Z,7.78
2022-12-13T14:08:45.089Z,11.57
2022-12-13T14:12:21.085Z,10.88
2022-12-13T14:23:11.956Z,9.82
2022-12-13T14:26:55.995Z,8.13
2022-12-13T14:41:29.482Z,9.90
2022-12-13T14:45:07.771Z,10.90
2022-12-13T14:48:14.126Z,11.02
2022-12-13T14:54:12.314Z,12.07
2022-12-13T14:56:58.015Z,8.90
2022-12-13T14:59:28.030Z,9.98
2022-12-13T15:02:00.308Z,9.55
2022-12-13T15:04:33.067Z,9.65
2022-12-13T15:07:07.975Z,11.35
2022-12-13T15:09:39.206Z,11.23
2022-12-13T15:12:24.421Z,9.95
2022-12-13T15:15:02.809Z,9.15
2022-12-13T15:17:44.913Z,9.70
2022-12-13T15:20:28.935Z,7.75
2022-12-13T15:23:13.520Z,9.10
2022-12-13T15:25:51.654Z,8.05
2022-12-13T15:28:22.268Z,9.75
2022-12-13T15:30:53.258Z,8.90
2022-12-13T15:33:30.876Z,8.15
2022-12-13T15:36:10.862Z,10.20
2022-12-13T15:38:44.566Z,7.45
2022-12-13T15:41:19.323Z,6.93
2022-12-13T15:43:51.919Z,7.35
2022-12-13T15:46:27.952Z,8.02
2022-12-13T15:49:00.051Z,7.35
2022-12-13T15:51:31.239Z,8.55
2022-12-13T15:54:18.805Z,7.88
2022-12-13T15:57:03.260Z,14.98
2022-12-13T15:59:34.096Z,9.05
2022-12-13T16:02:04.722Z,11.52
2022-12-13T16:04:34.899Z,10.07
2022-12-13T16:07:05.544Z,9.35
2022-12-13T16:09:38.473Z,8.00
2022-12-13T16:12:08.998Z,7.88
2022-12-13T16:14:48.860Z,8.10
2022-12-13T16:17:24.682Z,5.70
2022-12-13T16:19:55.631Z,6.30
2022-12-13T16:22:26.373Z,5.80
2022-12-13T16:24:56.735Z,5.45
2022-12-13T16:27:26.191Z,7.57
2022-12-13T16:29:55.500Z,8.05
2022-12-13T16:32:25.181Z,6.82
2022-12-13T16:34:54.661Z,4.80
2022-12-13T16:37:27.611Z,6.70
2022-12-13T16:40:02.004Z,6.93
2022-12-13T16:42:31.754Z,9.93
2022-12-13T16:45:32.947Z,8.10
2022-12-13T16:47:50.656Z,6.25
2022-12-13T16:50:22.223Z,9.20
2022-12-13T16:52:54.126Z,9.65
2022-12-13T16:55:23.388Z,10.73
2022-12-13T16:58:00.784Z,9.13
2022-12-13T17:00:31.172Z,9.10
2022-12-13T17:07:04.630Z,8.68
2022-12-13T17:09:37.520Z,8.55
2022-12-13T17:12:07.436Z,10.48
2022-12-13T17:14:37.223Z,10.40
2022-12-13T17:17:06.725Z,11.30
2022-12-13T17:19:36.633Z,8.85
2022-12-13T17:22:07.060Z,12.00
2022-12-13T18:06:36.386Z,10.30
2022-12-13T18:13:13.017Z,9.60
2022-12-13T18:16:38.270Z,9.23
2022-12-13T18:19:12.538Z,9.40
2022-12-13T18:29:55.071Z,11.35
2022-12-13T18:32:25.312Z,9.80
2022-12-13T18:34:56.222Z,8.48
2022-12-13T18:37:25.677Z,10.57
2022-12-13T18:40:15.842Z,9.38
2022-12-13T18:43:39.891Z,10.40
2022-12-13T18:47:04.118Z,9.93
2022-12-13T21:07:41.399Z,8.18
2022-12-13T21:10:11.401Z,10.05
2022-12-13T21:12:40.454Z,8.27
2022-12-13T21:15:10.289Z,9.13
2022-12-13T21:17:39.995Z,8.30
2022-12-13T21:20:09.925Z,10.13
2022-12-13T21:25:37.412Z,10.90
2022-12-13T21:28:07.772Z,8.52
2022-12-13T21:30:38.480Z,8.80
2022-12-13T21:33:08.551Z,6.20
2022-12-13T21:35:37.610Z,7.70
2022-12-13T21:38:06.625Z,9.95
2022-12-13T21:40:40.532Z,7.38
2022-12-13T21:43:09.573Z,8.60
2022-12-13T21:45:38.594Z,8.25
2022-12-13T21:48:08.137Z,9.20
2022-12-13T21:50:37.319Z,9.50
2022-12-13T21:53:06.868Z,5.25
2022-12-13T21:55:44.177Z,8.00
2022-12-13T21:58:34.439Z,7.20
2022-12-13T22:01:03.704Z,6.80
2022-12-13T22:04:24.331Z,7.70
2022-12-13T22:06:53.445Z,7.25
2022-12-13T22:09:22.548Z,8.15
2022-12-13T22:11:52.966Z,9.05
2022-12-13T22:14:22.091Z,8.90
2022-12-13T22:16:55.698Z,9.65
2022-12-13T22:19:24.789Z,8.32
2022-12-13T22:21:53.851Z,9.43
2022-12-13T22:24:22.949Z,8.35
2022-12-13T22:26:55.396Z,9.48
2022-12-13T22:29:24.895Z,10.82
2022-12-13T22:31:53.922Z,10.95
2022-12-13T22:34:23.188Z,10.93
2022-12-13T22:36:52.269Z,10.95
2022-12-13T22:39:23.080Z,10.57
2022-12-13T22:41:54.550Z,10.48
2022-12-13T22:44:23.625Z,10.45
2022-12-13T22:46:52.620Z,9.70
2022-12-13T22:49:22.643Z,9.75
2022-12-13T22:51:51.786Z,10.02
2022-12-13T22:54:20.903Z,9.55
2022-12-13T22:56:51.221Z,9.02
2022-12-13T22:59:21.675Z,12.35
2022-12-13T23:01:55.409Z,9.32
2022-12-13T23:04:28.985Z,7.35
2022-12-13T23:06:58.093Z,8.93
2022-12-13T23:09:27.300Z,11.10
2022-12-13T23:12:13.970Z,9.95
2022-12-13T23:14:51.424Z,8.05
2022-12-13T23:17:20.524Z,11.05
2022-12-13T23:19:53.449Z,8.32
2022-12-13T23:22:24.007Z,8.73
2022-12-13T23:24:54.120Z,8.10
2022-12-13T23:27:24.706Z,7.55
2022-12-13T23:29:55.107Z,10.15
2022-12-13T23:32:24.158Z,9.77
2022-12-13T23:34:53.232Z,10.02
2022-12-13T23:37:23.123Z,7.80
2022-12-13T23:39:52.207Z,8.05
2022-12-13T23:42:21.258Z,10.27
2022-12-13T23:44:50.314Z,8.73
2022-12-13T23:47:20.828Z,6.75
2022-12-13T23:49:50.183Z,9.75
2022-12-13T23:52:19.240Z,10.13
2022-12-13T23:54:48.362Z,9.27
2022-12-13T23:57:17.320Z,6.32
2022-12-13T23:59:49.373Z,8.00
